sensor_id;sensor_type;location;lat;lon;timestamp;pressure;altitude;pressure_sealevel;temperature;humidity
48968;BME280;46511;53.148;8.204;2023-05-09T00:00:38;101862.78;;;16.25;100.00
48968;BME280;46511;53.148;8.204;2023-05-09T00:03:09;101859.44;;;16.22;100.00
48968;BME280;46511;53.148;8.204;2023-05-09T00:05:42;101866.25;;;16.13;100.00
48968;BME280;46511;53.148;8.204;2023-05-09T00:08:13;101866.03;;;16.16;100.00
48968;BME280;46511;53.148;8.204;2023-05-09T00:10:45;101860.69;;;16.16;100.00
48968;BME280;46511;53.148;8.204;2023-05-09T00:13:16;101853.13;;;16.09;100.00
48968;BME280;46511;53.148;8.204;2023-05-09T00:15:49;101858.38;;;16.10;100.00
48968;BME280;46511;53.148;8.204;2023-05-09T00:18:23;101858.00;;;16.16;100.00
48968;BME280;46511;53.148;8.204;2023-05-09T00:20:55;101855.16;;;16.05;100.00
48968;BME280;46511;53.148;8.204;2023-05-09T00:23:26;101854.78;;;16.11;100.00
48968;BME280;46511;53.148;8.204;2023-05-09T00:25:58;101852.94;;;15.97;100.00
48968;BME280;46511;53.148;8.204;2023-05-09T00:28:29;101849.59;;;15.94;100.00
48968;BME280;46511;53.148;8.204;2023-05-09T00:31:00;101845.38;;;15.90;100.00
48968;BME280;46511;53.148;8.204;2023-05-09T00:33:33;101838.84;;;15.80;100.00
48968;BME280;46511;53.148;8.204;2023-05-09T00:36:04;101836.78;;;15.85;100.00
48968;BME280;46511;53.148;8.204;2023-05-09T00:38:36;101835.22;;;15.81;100.00
48968;BME280;46511;53.148;8.204;2023-05-09T00:41:07;101835.06;;;15.84;100.00
48968;BME280;46511;53.148;8.204;2023-05-09T00:43:38;101824.50;;;15.81;100.00
48968;BME280;46511;53.148;8.204;2023-05-09T00:46:10;101826.50;;;15.63;100.00
48968;BME280;46511;53.148;8.204;2023-05-09T00:48:41;101818.19;;;15.67;100.00
48968;BME280;46511;53.148;8.204;2023-05-09T00:51:13;101814.75;;;15.65;100.00
48968;BME280;46511;53.148;8.204;2023-05-09T00:53:45;101811.47;;;15.60;100.00
48968;BME280;46511;53.148;8.204;2023-05-09T00:56:16;101809.72;;;15.59;100.00
48968;BME280;46511;53.148;8.204;2023-05-09T00:58:47;101806.00;;;15.48;100.00
48968;BME280;46511;53.148;8.204;2023-05-09T01:01:19;101803.22;;;15.49;100.00
48968;BME280;46511;53.148;8.204;2023-05-09T01:03:51;101801.84;;;15.42;100.00
48968;BME280;46511;53.148;8.204;2023-05-09T01:11:51;101794.78;;;15.41;100.00
48968;BME280;46511;53.148;8.204;2023-05-09T01:17:10;101789.44;;;15.41;100.00
48968;BME280;46511;53.148;8.204;2023-05-09T01:22:32;101776.28;;;15.22;100.00
48968;BME280;46511;53.148;8.204;2023-05-09T01:30:37;101780.13;;;15.32;100.00
48968;BME280;46511;53.148;8.204;2023-05-09T01:33:16;101778.16;;;15.50;100.00
48968;BME280;46511;53.148;8.204;2023-05-09T01:35:50;101776.59;;;15.32;100.00
48968;BME280;46511;53.148;8.204;2023-05-09T01:38:27;101765.19;;;15.14;100.00
48968;BME280;46511;53.148;8.204;2023-05-09T01:41:01;101761.03;;;14.94;100.00
48968;BME280;46511;53.148;8.204;2023-05-09T01:43:35;101756.69;;;15.22;100.00
48968;BME280;46511;53.148;8.204;2023-05-09T01:46:08;101759.38;;;15.07;100.00
48968;BME280;46511;53.148;8.204;2023-05-09T01:48:40;101757.59;;;14.92;100.00
48968;BME280;46511;53.148;8.204;2023-05-09T01:51:13;101760.69;;;15.00;100.00
48968;BME280;46511;53.148;8.204;2023-05-09T01:53:47;101751.81;;;14.84;100.00
48968;BME280;46511;53.148;8.204;2023-05-09T01:56:19;101753.41;;;14.72;100.00
48968;BME280;46511;53.148;8.204;2023-05-09T01:58:54;101743.06;;;14.66;100.00
48968;BME280;46511;53.148;8.204;2023-05-09T02:01:27;101740.38;;;14.82;100.00
48968;BME280;46511;53.148;8.204;2023-05-09T02:04:00;101749.66;;;14.61;100.00
48968;BME280;46511;53.148;8.204;2023-05-09T02:06:34;101742.50;;;14.61;100.00
48968;BME280;46511;53.148;8.204;2023-05-09T02:09:06;101741.88;;;14.56;100.00
48968;BME280;46511;53.148;8.204;2023-05-09T02:11:38;101735.13;;;14.65;100.00
48968;BME280;46511;53.148;8.204;2023-05-09T02:14:09;101734.59;;;14.74;100.00
48968;BME280;46511;53.148;8.204;2023-05-09T02:16:41;101731.00;;;14.59;100.00
48968;BME280;46511;53.148;8.204;2023-05-09T02:19:12;101737.59;;;14.53;100.00
48968;BME280;46511;53.148;8.204;2023-05-09T02:21:43;101728.28;;;14.45;100.00
48968;BME280;46511;53.148;8.204;2023-05-09T02:24:15;101726.00;;;14.69;100.00
48968;BME280;46511;53.148;8.204;2023-05-09T02:26:46;101729.44;;;14.71;100.00
48968;BME280;46511;53.148;8.204;2023-05-09T02:29:18;101733.41;;;14.64;100.00
48968;BME280;46511;53.148;8.204;2023-05-09T02:31:52;101723.44;;;14.51;100.00
48968;BME280;46511;53.148;8.204;2023-05-09T02:34:24;101731.81;;;14.45;100.00
48968;BME280;46511;53.148;8.204;2023-05-09T02:36:56;101726.69;;;14.56;100.00
48968;BME280;46511;53.148;8.204;2023-05-09T02:39:27;101732.91;;;14.41;100.00
48968;BME280;46511;53.148;8.204;2023-05-09T02:42:04;101736.56;;;14.40;100.00
48968;BME280;46511;53.148;8.204;2023-05-09T02:44:36;101741.28;;;14.35;100.00
48968;BME280;46511;53.148;8.204;2023-05-09T02:47:10;101745.44;;;14.25;100.00
48968;BME280;46511;53.148;8.204;2023-05-09T02:49:42;101735.69;;;14.24;100.00
48968;BME280;46511;53.148;8.204;2023-05-09T02:52:13;101736.91;;;14.50;100.00
48968;BME280;46511;53.148;8.204;2023-05-09T02:54:44;101736.88;;;14.18;100.00
48968;BME280;46511;53.148;8.204;2023-05-09T02:57:15;101736.47;;;14.26;100.00
48968;BME280;46511;53.148;8.204;2023-05-09T02:59:47;101729.50;;;14.23;100.00
48968;BME280;46511;53.148;8.204;2023-05-09T03:02:18;101726.91;;;14.22;100.00
48968;BME280;46511;53.148;8.204;2023-05-09T03:04:49;101727.56;;;14.41;100.00
48968;BME280;46511;53.148;8.204;2023-05-09T03:07:20;101720.34;;;14.27;100.00
48968;BME280;46511;53.148;8.204;2023-05-09T03:09:52;101720.09;;;14.16;100.00
48968;BME280;46511;53.148;8.204;2023-05-09T03:12:23;101716.28;;;14.20;100.00
48968;BME280;46511;53.148;8.204;2023-05-09T03:14:54;101709.59;;;14.13;100.00
48968;BME280;46511;53.148;8.204;2023-05-09T03:17:25;101708.97;;;14.24;100.00
48968;BME280;46511;53.148;8.204;2023-05-09T03:19:57;101706.06;;;14.13;100.00
48968;BME280;46511;53.148;8.204;2023-05-09T03:22:23;101703.09;;;14.01;100.00
48968;BME280;46511;53.148;8.204;2023-05-09T03:24:54;101705.09;;;14.14;100.00
48968;BME280;46511;53.148;8.204;2023-05-09T03:27:26;101700.00;;;14.09;100.00
48968;BME280;46511;53.148;8.204;2023-05-09T03:29:57;101697.75;;;14.01;100.00
48968;BME280;46511;53.148;8.204;2023-05-09T03:32:28;101694.06;;;13.88;100.00
48968;BME280;46511;53.148;8.204;2023-05-09T03:35:00;101688.28;;;13.80;100.00
48968;BME280;46511;53.148;8.204;2023-05-09T03:37:31;101690.00;;;13.81;100.00
48968;BME280;46511;53.148;8.204;2023-05-09T03:40:03;101682.50;;;13.72;100.00
48968;BME280;46511;53.148;8.204;2023-05-09T03:42:29;101684.16;;;13.75;100.00
48968;BME280;46511;53.148;8.204;2023-05-09T03:45:00;101674.06;;;13.64;100.00
48968;BME280;46511;53.148;8.204;2023-05-09T03:47:32;101678.38;;;13.82;100.00
48968;BME280;46511;53.148;8.204;2023-05-09T03:50:03;101681.28;;;13.62;100.00
48968;BME280;46511;53.148;8.204;2023-05-09T03:52:35;101682.00;;;13.81;100.00
48968;BME280;46511;53.148;8.204;2023-05-09T03:55:07;101679.50;;;13.78;100.00
48968;BME280;46511;53.148;8.204;2023-05-09T03:57:39;101678.28;;;13.99;100.00
48968;BME280;46511;53.148;8.204;2023-05-09T04:00:10;101680.53;;;14.07;100.00
48968;BME280;46511;53.148;8.204;2023-05-09T04:02:42;101677.75;;;14.24;100.00
48968;BME280;46511;53.148;8.204;2023-05-09T04:05:13;101674.22;;;14.24;100.00
48968;BME280;46511;53.148;8.204;2023-05-09T04:07:45;101675.00;;;14.26;100.00
48968;BME280;46511;53.148;8.204;2023-05-09T04:10:17;101674.72;;;14.30;100.00
48968;BME280;46511;53.148;8.204;2023-05-09T04:12:48;101680.22;;;14.43;100.00
48968;BME280;46511;53.148;8.204;2023-05-09T04:15:19;101678.78;;;14.68;100.00
48968;BME280;46511;53.148;8.204;2023-05-09T04:17:50;101672.63;;;14.81;100.00
48968;BME280;46511;53.148;8.204;2023-05-09T04:20:22;101679.25;;;15.04;100.00
48968;BME280;46511;53.148;8.204;2023-05-09T04:22:53;101681.72;;;14.79;100.00
48968;BME280;46511;53.148;8.204;2023-05-09T04:25:24;101674.06;;;14.87;100.00
48968;BME280;46511;53.148;8.204;2023-05-09T04:27:56;101671.63;;;14.68;100.00
48968;BME280;46511;53.148;8.204;2023-05-09T04:30:27;101672.94;;;14.91;100.00
48968;BME280;46511;53.148;8.204;2023-05-09T04:32:59;101667.78;;;14.88;100.00
48968;BME280;46511;53.148;8.204;2023-05-09T04:35:30;101672.06;;;14.91;100.00
48968;BME280;46511;53.148;8.204;2023-05-09T04:38:01;101667.59;;;15.05;100.00
48968;BME280;46511;53.148;8.204;2023-05-09T04:40:32;101671.81;;;15.09;99.73
48968;BME280;46511;53.148;8.204;2023-05-09T04:43:04;101669.50;;;14.89;100.00
48968;BME280;46511;53.148;8.204;2023-05-09T04:45:36;101663.59;;;15.12;99.77
48968;BME280;46511;53.148;8.204;2023-05-09T04:48:07;101655.25;;;14.89;100.00
48968;BME280;46511;53.148;8.204;2023-05-09T04:50:39;101655.66;;;15.11;98.63
48968;BME280;46511;53.148;8.204;2023-05-09T04:53:11;101650.00;;;15.01;99.79
48968;BME280;46511;53.148;8.204;2023-05-09T04:55:42;101645.81;;;14.97;100.00
48968;BME280;46511;53.148;8.204;2023-05-09T04:58:13;101642.34;;;15.24;98.48
48968;BME280;46511;53.148;8.204;2023-05-09T05:00:45;101644.56;;;15.31;98.27
48968;BME280;46511;53.148;8.204;2023-05-09T05:03:16;101643.88;;;15.56;96.40
48968;BME280;46511;53.148;8.204;2023-05-09T05:05:43;101636.44;;;15.61;96.57
48968;BME280;46511;53.148;8.204;2023-05-09T05:08:14;101640.31;;;15.84;95.26
48968;BME280;46511;53.148;8.204;2023-05-09T05:10:45;101642.03;;;16.12;92.74
48968;BME280;46511;53.148;8.204;2023-05-09T05:13:17;101642.13;;;15.84;93.28
48968;BME280;46511;53.148;8.204;2023-05-09T05:15:48;101641.28;;;15.69;94.20
48968;BME280;46511;53.148;8.204;2023-05-09T05:18:20;101636.56;;;15.87;93.66
48968;BME280;46511;53.148;8.204;2023-05-09T05:20:51;101627.69;;;16.13;92.39
48968;BME280;46511;53.148;8.204;2023-05-09T05:23:17;101628.03;;;15.94;93.14
48968;BME280;46511;53.148;8.204;2023-05-09T05:25:49;101625.00;;;16.13;91.79
48968;BME280;46511;53.148;8.204;2023-05-09T05:28:20;101628.06;;;16.07;92.08
48968;BME280;46511;53.148;8.204;2023-05-09T05:30:51;101621.94;;;16.32;90.13
48968;BME280;46511;53.148;8.204;2023-05-09T05:33:23;101627.41;;;16.31;91.20
48968;BME280;46511;53.148;8.204;2023-05-09T05:35:50;101619.22;;;16.59;89.82
48968;BME280;46511;53.148;8.204;2023-05-09T05:38:21;101621.84;;;16.99;85.99
48968;BME280;46511;53.148;8.204;2023-05-09T05:40:47;101613.97;;;17.21;83.50
48968;BME280;46511;53.148;8.204;2023-05-09T05:43:19;101617.31;;;16.87;85.47
48968;BME280;46511;53.148;8.204;2023-05-09T05:45:50;101610.00;;;17.27;83.55
48968;BME280;46511;53.148;8.204;2023-05-09T05:48:21;101611.63;;;17.66;80.50
48968;BME280;46511;53.148;8.204;2023-05-09T05:50:53;101610.50;;;17.81;79.68
48968;BME280;46511;53.148;8.204;2023-05-09T05:53:24;101609.47;;;18.89;73.17
48968;BME280;46511;53.148;8.204;2023-05-09T05:55:56;101607.38;;;18.81;70.18
48968;BME280;46511;53.148;8.204;2023-05-09T05:58:27;101601.59;;;18.75;70.85
48968;BME280;46511;53.148;8.204;2023-05-09T06:00:58;101590.22;;;19.61;67.58
48968;BME280;46511;53.148;8.204;2023-05-09T06:03:30;101584.38;;;19.33;66.31
48968;BME280;46511;53.148;8.204;2023-05-09T06:06:01;101588.16;;;19.42;65.92
48968;BME280;46511;53.148;8.204;2023-05-09T06:08:33;101584.38;;;21.03;61.32
48968;BME280;46511;53.148;8.204;2023-05-09T06:11:04;101575.25;;;22.62;51.34
48968;BME280;46511;53.148;8.204;2023-05-09T06:13:36;101568.59;;;22.57;51.47
48968;BME280;46511;53.148;8.204;2023-05-09T06:16:07;101574.44;;;22.42;50.84
48968;BME280;46511;53.148;8.204;2023-05-09T06:18:38;101576.84;;;20.14;59.30
48968;BME280;46511;53.148;8.204;2023-05-09T06:21:10;101573.84;;;20.28;61.05
48968;BME280;46511;53.148;8.204;2023-05-09T06:23:41;101566.16;;;21.76;56.32
48968;BME280;46511;53.148;8.204;2023-05-09T06:26:12;101553.94;;;23.61;50.21
48968;BME280;46511;53.148;8.204;2023-05-09T06:28:44;101549.44;;;23.87;48.36
48968;BME280;46511;53.148;8.204;2023-05-09T06:31:16;101549.91;;;24.01;47.75
48968;BME280;46511;53.148;8.204;2023-05-09T06:33:42;101543.53;;;24.10;47.45
48968;BME280;46511;53.148;8.204;2023-05-09T06:36:13;101536.22;;;23.02;50.26
48968;BME280;46511;53.148;8.204;2023-05-09T06:38:45;101537.03;;;24.38;47.01
48968;BME280;46511;53.148;8.204;2023-05-09T06:41:16;101544.19;;;23.58;48.25
48968;BME280;46511;53.148;8.204;2023-05-09T06:43:47;101534.72;;;22.23;52.64
48968;BME280;46511;53.148;8.204;2023-05-09T06:46:19;101536.41;;;22.24;53.79
48968;BME280;46511;53.148;8.204;2023-05-09T06:48:50;101525.81;;;21.34;58.37
48968;BME280;46511;53.148;8.204;2023-05-09T06:51:16;101525.44;;;20.47;63.84
48968;BME280;46511;53.148;8.204;2023-05-09T06:53:47;101523.44;;;20.49;63.77
48968;BME280;46511;53.148;8.204;2023-05-09T06:56:14;101524.41;;;20.69;65.03
48968;BME280;46511;53.148;8.204;2023-05-09T06:58:46;101524.31;;;20.18;67.57
48968;BME280;46511;53.148;8.204;2023-05-09T07:01:17;101519.03;;;20.79;65.38
48968;BME280;46511;53.148;8.204;2023-05-09T07:03:48;101509.56;;;20.85;66.38
48968;BME280;46511;53.148;8.204;2023-05-09T07:06:20;101506.38;;;21.10;65.04
48968;BME280;46511;53.148;8.204;2023-05-09T07:08:46;101509.66;;;22.12;59.84
48968;BME280;46511;53.148;8.204;2023-05-09T07:11:17;101508.28;;;23.92;53.54
48968;BME280;46511;53.148;8.204;2023-05-09T07:13:48;101503.84;;;24.87;48.61
48968;BME280;46511;53.148;8.204;2023-05-09T07:16:20;101494.41;;;24.39;48.95
48968;BME280;46511;53.148;8.204;2023-05-09T07:18:47;101501.84;;;22.65;54.96
48968;BME280;46511;53.148;8.204;2023-05-09T07:21:19;101482.69;;;23.77;54.40
48968;BME280;46511;53.148;8.204;2023-05-09T07:23:50;101478.00;;;25.17;48.00
48968;BME280;46511;53.148;8.204;2023-05-09T07:26:21;101473.41;;;26.80;44.00
48968;BME280;46511;53.148;8.204;2023-05-09T07:28:52;101474.66;;;27.17;42.94
48968;BME280;46511;53.148;8.204;2023-05-09T07:31:24;101472.13;;;27.38;42.22
48968;BME280;46511;53.148;8.204;2023-05-09T07:33:55;101461.31;;;28.13;40.78
48968;BME280;46511;53.148;8.204;2023-05-09T07:36:27;101458.56;;;27.99;39.72
48968;BME280;46511;53.148;8.204;2023-05-09T07:38:58;101461.63;;;26.24;43.44
48968;BME280;46511;53.148;8.204;2023-05-09T07:41:29;101458.41;;;25.96;45.85
48968;BME280;46511;53.148;8.204;2023-05-09T07:43:56;101455.75;;;25.13;47.92
48968;BME280;46511;53.148;8.204;2023-05-09T07:46:28;101444.53;;;25.16;48.81
48968;BME280;46511;53.148;8.204;2023-05-09T07:48:59;101439.66;;;24.86;50.13
48968;BME280;46511;53.148;8.204;2023-05-09T07:51:30;101441.03;;;24.98;51.05
48968;BME280;46511;53.148;8.204;2023-05-09T07:54:02;101436.09;;;26.25;47.04
48968;BME280;46511;53.148;8.204;2023-05-09T07:56:33;101424.31;;;26.88;45.64
48968;BME280;46511;53.148;8.204;2023-05-09T07:59:04;101418.69;;;26.90;45.94
48968;BME280;46511;53.148;8.204;2023-05-09T08:01:36;101414.31;;;27.20;45.59
48968;BME280;46511;53.148;8.204;2023-05-09T08:04:07;101426.94;;;26.10;48.46
48968;BME280;46511;53.148;8.204;2023-05-09T08:06:39;101425.22;;;26.09;48.71
48968;BME280;46511;53.148;8.204;2023-05-09T08:09:05;101417.41;;;26.06;49.80
48968;BME280;46511;53.148;8.204;2023-05-09T08:11:37;101401.28;;;27.30;46.54
48968;BME280;46511;53.148;8.204;2023-05-09T08:14:08;101408.91;;;29.49;41.69
48968;BME280;46511;53.148;8.204;2023-05-09T08:16:35;101401.75;;;28.91;41.96
48968;BME280;46511;53.148;8.204;2023-05-09T08:19:06;101407.66;;;29.30;41.73
48968;BME280;46511;53.148;8.204;2023-05-09T08:21:37;101408.25;;;28.45;43.13
48968;BME280;46511;53.148;8.204;2023-05-09T08:24:08;101401.06;;;28.59;44.24
48968;BME280;46511;53.148;8.204;2023-05-09T08:26:40;101392.13;;;27.69;45.40
48968;BME280;46511;53.148;8.204;2023-05-09T08:29:06;101399.50;;;27.60;46.45
48968;BME280;46511;53.148;8.204;2023-05-09T08:31:32;101400.47;;;29.29;42.78
48968;BME280;46511;53.148;8.204;2023-05-09T08:34:03;101379.72;;;28.99;43.26
48968;BME280;46511;53.148;8.204;2023-05-09T08:36:35;101387.66;;;29.30;42.71
48968;BME280;46511;53.148;8.204;2023-05-09T08:39:06;101374.91;;;31.04;39.84
48968;BME280;46511;53.148;8.204;2023-05-09T08:41:39;101361.28;;;30.69;39.74
48968;BME280;46511;53.148;8.204;2023-05-09T08:44:12;101358.25;;;30.57;40.49
48968;BME280;46511;53.148;8.204;2023-05-09T08:46:43;101365.34;;;29.76;41.85
48968;BME280;46511;53.148;8.204;2023-05-09T08:49:17;101358.97;;;30.66;40.63
48968;BME280;46511;53.148;8.204;2023-05-09T08:51:51;101353.38;;;31.07;40.07
48968;BME280;46511;53.148;8.204;2023-05-09T08:54:22;101363.53;;;29.90;41.21
48968;BME280;46511;53.148;8.204;2023-05-09T08:56:49;101350.13;;;30.29;41.07
48968;BME280;46511;53.148;8.204;2023-05-09T08:59:21;101339.13;;;31.38;38.41
48968;BME280;46511;53.148;8.204;2023-05-09T09:01:53;101338.56;;;30.40;40.25
48968;BME280;46511;53.148;8.204;2023-05-09T09:04:25;101333.28;;;28.69;42.97
48968;BME280;46511;53.148;8.204;2023-05-09T09:06:51;101344.53;;;27.86;45.83
48968;BME280;46511;53.148;8.204;2023-05-09T09:09:23;101330.78;;;27.94;45.97
48968;BME280;46511;53.148;8.204;2023-05-09T09:11:55;101330.41;;;27.97;47.06
48968;BME280;46511;53.148;8.204;2023-05-09T09:14:27;101326.63;;;28.42;45.10
48968;BME280;46511;53.148;8.204;2023-05-09T09:17:02;101329.66;;;28.33;45.69
48968;BME280;46511;53.148;8.204;2023-05-09T09:19:35;101326.28;;;28.31;45.39
48968;BME280;46511;53.148;8.204;2023-05-09T09:22:07;101323.75;;;28.44;45.85
48968;BME280;46511;53.148;8.204;2023-05-09T09:24:43;101327.59;;;28.35;46.08
48968;BME280;46511;53.148;8.204;2023-05-09T09:27:15;101324.13;;;28.77;45.82
48968;BME280;46511;53.148;8.204;2023-05-09T09:29:46;101325.16;;;29.12;44.54
48968;BME280;46511;53.148;8.204;2023-05-09T09:32:18;101317.44;;;28.29;45.59
48968;BME280;46511;53.148;8.204;2023-05-09T09:34:49;101332.72;;;28.59;45.52
48968;BME280;46511;53.148;8.204;2023-05-09T09:37:21;101312.13;;;27.45;48.16
48968;BME280;46511;53.148;8.204;2023-05-09T09:39:53;101303.88;;;28.35;47.04
48968;BME280;46511;53.148;8.204;2023-05-09T09:42:25;101303.44;;;29.32;44.57
48968;BME280;46511;53.148;8.204;2023-05-09T09:45:05;101303.25;;;30.18;42.47
48968;BME280;46511;53.148;8.204;2023-05-09T09:47:39;101307.03;;;28.90;43.87
48968;BME280;46511;53.148;8.204;2023-05-09T09:50:14;101288.31;;;30.75;40.93
48968;BME280;46511;53.148;8.204;2023-05-09T09:52:48;101289.69;;;30.44;42.00
48968;BME280;46511;53.148;8.204;2023-05-09T09:55:21;101289.69;;;31.38;38.80
48968;BME280;46511;53.148;8.204;2023-05-09T09:57:54;101294.25;;;30.24;40.97
48968;BME280;46511;53.148;8.204;2023-05-09T10:00:26;101279.72;;;27.95;46.06
48968;BME280;46511;53.148;8.204;2023-05-09T10:02:58;101290.06;;;28.14;47.35
48968;BME280;46511;53.148;8.204;2023-05-09T10:05:30;101286.56;;;29.78;43.80
48968;BME280;46511;53.148;8.204;2023-05-09T10:08:04;101284.97;;;32.05;39.51
48968;BME280;46511;53.148;8.204;2023-05-09T10:10:37;101265.97;;;30.84;41.30
48968;BME280;46511;53.148;8.204;2023-05-09T10:13:05;101259.22;;;29.28;43.97
48968;BME280;46511;53.148;8.204;2023-05-09T10:15:39;101266.22;;;27.64;48.34
48968;BME280;46511;53.148;8.204;2023-05-09T10:18:06;101262.88;;;28.35;47.59
48968;BME280;46511;53.148;8.204;2023-05-09T10:20:40;101249.44;;;28.77;45.48
48968;BME280;46511;53.148;8.204;2023-05-09T10:23:13;101255.59;;;27.39;49.43
48968;BME280;46511;53.148;8.204;2023-05-09T10:25:47;101245.31;;;25.71;56.09
48968;BME280;46511;53.148;8.204;2023-05-09T10:28:26;101240.94;;;26.94;55.18
48968;BME280;46511;53.148;8.204;2023-05-09T10:33:38;101239.88;;;26.18;56.07
48968;BME280;46511;53.148;8.204;2023-05-09T10:36:17;101220.72;;;26.66;54.36
48968;BME280;46511;53.148;8.204;2023-05-09T10:38:52;101227.66;;;26.45;57.09
48968;BME280;46511;53.148;8.204;2023-05-09T10:41:19;101225.06;;;28.39;49.92
48968;BME280;46511;53.148;8.204;2023-05-09T10:43:57;101224.84;;;28.77;49.04
48968;BME280;46511;53.148;8.204;2023-05-09T10:46:24;101211.41;;;28.60;49.54
48968;BME280;46511;53.148;8.204;2023-05-09T10:48:57;101212.03;;;27.90;50.07
48968;BME280;46511;53.148;8.204;2023-05-09T10:51:28;101212.22;;;27.07;53.50
48968;BME280;46511;53.148;8.204;2023-05-09T10:53:55;101208.44;;;27.30;52.60
48968;BME280;46511;53.148;8.204;2023-05-09T10:56:30;101204.00;;;26.46;55.66
48968;BME280;46511;53.148;8.204;2023-05-09T10:59:02;101200.75;;;28.87;48.71
48968;BME280;46511;53.148;8.204;2023-05-09T11:01:34;101215.22;;;29.02;47.27
48968;BME280;46511;53.148;8.204;2023-05-09T11:09:26;101186.69;;;27.37;53.52
48968;BME280;46511;53.148;8.204;2023-05-09T11:14:39;101196.97;;;27.50;52.15
48968;BME280;46511;53.148;8.204;2023-05-09T11:19:58;101181.25;;;26.00;57.81
48968;BME280;46511;53.148;8.204;2023-05-09T11:25:10;101173.00;;;24.56;69.44
48968;BME280;46511;53.148;8.204;2023-05-09T11:27:44;101168.06;;;24.84;70.97
48968;BME280;46511;53.148;8.204;2023-05-09T11:30:19;101167.72;;;24.38;73.43
48968;BME280;46511;53.148;8.204;2023-05-09T11:32:54;101178.38;;;24.32;75.23
48968;BME280;46511;53.148;8.204;2023-05-09T11:35:27;101161.22;;;23.73;77.91
48968;BME280;46511;53.148;8.204;2023-05-09T11:38:00;101168.03;;;23.85;78.29
48968;BME280;46511;53.148;8.204;2023-05-09T11:40:33;101158.22;;;23.58;81.02
48968;BME280;46511;53.148;8.204;2023-05-09T11:43:05;101157.53;;;23.22;84.17
48968;BME280;46511;53.148;8.204;2023-05-09T11:45:37;101155.38;;;23.07;87.37
48968;BME280;46511;53.148;8.204;2023-05-09T11:48:08;101156.13;;;23.18;88.18
48968;BME280;46511;53.148;8.204;2023-05-09T11:50:40;101157.31;;;23.49;84.77
48968;BME280;46511;53.148;8.204;2023-05-09T11:53:11;101151.84;;;24.09;81.65
48968;BME280;46511;53.148;8.204;2023-05-09T11:55:43;101146.81;;;24.39;77.87
48968;BME280;46511;53.148;8.204;2023-05-09T11:58:14;101136.84;;;23.97;80.01
48968;BME280;46511;53.148;8.204;2023-05-09T12:00:46;101150.38;;;23.81;83.51
48968;BME280;46511;53.148;8.204;2023-05-09T12:03:18;101139.88;;;23.18;88.66
48968;BME280;46511;53.148;8.204;2023-05-09T12:05:50;101135.84;;;23.90;85.82
48968;BME280;46511;53.148;8.204;2023-05-09T12:08:23;101136.16;;;23.87;85.28
48968;BME280;46511;53.148;8.204;2023-05-09T12:10:55;101134.91;;;23.65;85.71
48968;BME280;46511;53.148;8.204;2023-05-09T12:13:45;101134.03;;;23.04;88.51
48968;BME280;46511;53.148;8.204;2023-05-09T12:16:17;101121.72;;;23.44;88.06
48968;BME280;46511;53.148;8.204;2023-05-09T12:18:50;101128.72;;;22.95;91.28
48968;BME280;46511;53.148;8.204;2023-05-09T12:21:22;101117.09;;;23.36;90.58
48968;BME280;46511;53.148;8.204;2023-05-09T12:23:54;101117.84;;;23.21;91.16
48968;BME280;46511;53.148;8.204;2023-05-09T12:26:26;101124.63;;;22.73;93.36
48968;BME280;46511;53.148;8.204;2023-05-09T12:28:58;101105.66;;;22.91;93.98
48968;BME280;46511;53.148;8.204;2023-05-09T12:31:29;101108.94;;;23.02;91.75
48968;BME280;46511;53.148;8.204;2023-05-09T12:34:01;101103.94;;;23.16;91.79
48968;BME280;46511;53.148;8.204;2023-05-09T12:36:33;101121.19;;;23.06;92.12
48968;BME280;46511;53.148;8.204;2023-05-09T12:39:09;101101.81;;;23.27;90.91
48968;BME280;46511;53.148;8.204;2023-05-09T12:41:44;101104.09;;;23.48;89.40
48968;BME280;46511;53.148;8.204;2023-05-09T12:44:19;101098.50;;;23.84;86.15
48968;BME280;46511;53.148;8.204;2023-05-09T12:46:55;101095.72;;;23.68;86.42
48968;BME280;46511;53.148;8.204;2023-05-09T12:49:31;101095.72;;;23.68;86.75
48968;BME280;46511;53.148;8.204;2023-05-09T12:52:14;101092.78;;;24.03;84.66
48968;BME280;46511;53.148;8.204;2023-05-09T12:54:49;101086.84;;;24.00;83.62
48968;BME280;46511;53.148;8.204;2023-05-09T12:57:23;101084.66;;;24.11;82.63
48968;BME280;46511;53.148;8.204;2023-05-09T12:59:57;101081.28;;;24.09;83.61
48968;BME280;46511;53.148;8.204;2023-05-09T13:02:35;101075.84;;;24.09;83.93
48968;BME280;46511;53.148;8.204;2023-05-09T13:07:46;101072.13;;;24.18;85.49
48968;BME280;46511;53.148;8.204;2023-05-09T13:10:22;101076.69;;;23.51;89.50
48968;BME280;46511;53.148;8.204;2023-05-09T13:12:56;101067.78;;;23.75;87.39
48968;BME280;46511;53.148;8.204;2023-05-09T13:15:27;101072.75;;;23.88;86.60
48968;BME280;46511;53.148;8.204;2023-05-09T13:17:59;101063.59;;;24.05;85.79
48968;BME280;46511;53.148;8.204;2023-05-09T13:20:30;101054.13;;;24.09;84.35
48968;BME280;46511;53.148;8.204;2023-05-09T13:23:02;101048.72;;;24.17;83.85
48968;BME280;46511;53.148;8.204;2023-05-09T13:25:33;101050.03;;;24.13;84.60
48968;BME280;46511;53.148;8.204;2023-05-09T13:28:05;101041.91;;;24.54;82.45
48968;BME280;46511;53.148;8.204;2023-05-09T13:30:37;101043.56;;;25.04;78.27
48968;BME280;46511;53.148;8.204;2023-05-09T13:33:08;101028.78;;;25.38;75.39
48968;BME280;46511;53.148;8.204;2023-05-09T13:35:39;101034.41;;;25.67;72.50
48968;BME280;46511;53.148;8.204;2023-05-09T13:38:11;101025.38;;;24.88;74.81
48968;BME280;46511;53.148;8.204;2023-05-09T13:40:42;101029.88;;;24.48;78.30
48968;BME280;46511;53.148;8.204;2023-05-09T13:43:13;101028.50;;;24.53;80.03